createdAt,value
2022-12-14T00:01:41.423Z,72.15
2022-12-14T00:04:10.322Z,72.68
2022-12-14T00:06:37.211Z,72.57
2022-12-14T00:09:05.431Z,72.78
2022-12-14T00:11:34.839Z,73.05
2022-12-14T00:14:03.567Z,73.23
2022-12-14T00:16:32.584Z,73.00
2022-12-14T00:19:00.997Z,72.96
2022-12-14T00:21:28.123Z,73.45
2022-12-14T00:23:55.461Z,73.33
2022-12-14T00:26:25.709Z,73.18
2022-12-14T00:28:54.497Z,73.48
2022-12-14T00:31:22.772Z,73.32
2022-12-14T00:33:50.569Z,73.21
2022-12-14T00:36:17.821Z,73.35
2022-12-14T00:38:44.646Z,73.28
2022-12-14T00:41:12.364Z,73.65
2022-12-14T00:43:39.411Z,73.47
2022-12-14T00:46:06.739Z,73.28
2022-12-14T00:48:34.245Z,72.90
2022-12-14T00:51:00.971Z,72.89
2022-12-14T00:53:27.573Z,72.93
2022-12-14T00:55:54.383Z,73.27
2022-12-14T00:58:24.561Z,72.73
2022-12-14T01:01:06.843Z,72.94
2022-12-14T01:03:34.413Z,73.25
2022-12-14T01:06:01.243Z,72.78
2022-12-14T01:08:36.400Z,72.80
2022-12-14T01:11:06.473Z,72.74
2022-12-14T01:13:33.464Z,73.14
2022-12-14T01:16:12.271Z,72.91
2022-12-14T01:18:40.338Z,73.03
2022-12-14T01:21:18.055Z,73.28
2022-12-14T01:23:45.876Z,73.31
2022-12-14T01:26:15.000Z,73.31
2022-12-14T01:28:42.426Z,73.54
2022-12-14T01:31:14.662Z,73.17
2022-12-14T01:33:41.532Z,73.02
2022-12-14T01:36:11.250Z,72.53
2022-12-14T01:38:37.884Z,73.11
2022-12-14T01:41:06.009Z,72.71
2022-12-14T01:44:07.605Z,72.61
2022-12-14T01:46:46.400Z,72.55
2022-12-14T01:49:19.464Z,72.41
2022-12-14T01:52:04.824Z,72.90
2022-12-14T01:54:35.702Z,72.38
2022-12-14T01:57:02.454Z,72.54
2022-12-14T01:59:34.524Z,72.48
2022-12-14T02:02:06.514Z,72.53
2022-12-14T02:04:37.602Z,72.18
2022-12-14T02:07:04.840Z,72.01
2022-12-14T02:09:36.284Z,71.65
2022-12-14T02:12:18.842Z,71.92
2022-12-14T02:14:47.240Z,71.82
2022-12-14T02:17:15.765Z,71.87
2022-12-14T02:19:43.961Z,72.14
2022-12-14T02:22:37.684Z,72.28
2022-12-14T02:25:16.254Z,72.10
2022-12-14T02:28:16.297Z,71.92
2022-12-14T02:30:50.210Z,72.31
2022-12-14T02:33:16.748Z,72.20
2022-12-14T02:36:05.535Z,71.99
2022-12-14T02:38:50.275Z,71.89
2022-12-14T02:41:42.448Z,71.65
2022-12-14T02:44:15.049Z,72.06
2022-12-14T02:47:09.403Z,71.99
2022-12-14T02:49:49.711Z,71.89
2022-12-14T02:52:28.634Z,71.71
2022-12-14T02:55:01.765Z,71.68
2022-12-14T02:57:44.956Z,71.61
2022-12-14T03:00:12.655Z,71.64
2022-12-14T03:02:42.393Z,71.59
2022-12-14T03:05:10.570Z,71.45
2022-12-14T03:08:05.189Z,71.30
2022-12-14T03:10:56.493Z,70.86
2022-12-14T03:13:46.439Z,70.70
2022-12-14T03:16:22.641Z,70.85
2022-12-14T03:18:58.307Z,70.96
2022-12-14T03:21:29.926Z,70.80
2022-12-14T03:23:59.102Z,71.10
2022-12-14T03:26:35.345Z,71.06
2022-12-14T03:32:15.421Z,70.83
2022-12-14T03:34:49.401Z,70.67
2022-12-14T03:37:26.461Z,70.95
2022-12-14T03:39:53.118Z,70.86
2022-12-14T03:42:24.625Z,70.65
2022-12-14T03:45:09.733Z,70.88
2022-12-14T03:48:00.226Z,71.15
2022-12-14T03:50:44.131Z,71.15
2022-12-14T03:53:28.468Z,70.78
2022-12-14T03:56:16.465Z,70.66
2022-12-14T03:59:08.538Z,71.01
2022-12-14T04:01:58.636Z,70.54
2022-12-14T04:04:40.649Z,70.85
2022-12-14T04:07:16.945Z,70.55
2022-12-14T04:10:40.601Z,70.79
2022-12-14T04:13:31.631Z,71.39
2022-12-14T04:16:23.992Z,71.06
2022-12-14T04:18:59.687Z,70.75
2022-12-14T04:21:38.650Z,70.94
2022-12-14T04:24:32.562Z,70.67
2022-12-14T04:27:06.751Z,70.22
2022-12-14T04:29:55.570Z,70.57
2022-12-14T04:32:38.165Z,70.65
2022-12-14T04:35:10.941Z,70.63
2022-12-14T04:37:40.378Z,70.47
2022-12-14T04:40:14.836Z,70.40
2022-12-14T04:42:48.456Z,70.48
2022-12-14T04:45:27.012Z,70.59
2022-12-14T04:48:11.666Z,70.34
2022-12-14T04:50:44.210Z,70.35
2022-12-14T04:53:16.910Z,70.02
2022-12-14T04:55:43.593Z,69.93
2022-12-14T04:58:19.921Z,69.86
2022-12-14T05:01:20.266Z,69.93
2022-12-14T05:04:39.751Z,69.58
2022-12-14T05:07:09.269Z,69.20
2022-12-14T05:09:38.326Z,69.46
2022-12-14T05:12:16.994Z,69.71
2022-12-14T05:15:02.262Z,69.42
2022-12-14T05:17:30.523Z,69.41
2022-12-14T05:19:59.911Z,69.59
2022-12-14T05:22:26.525Z,69.58
2022-12-14T05:24:54.518Z,69.43
2022-12-14T05:27:21.086Z,68.73
2022-12-14T05:29:47.673Z,68.92
2022-12-14T05:32:14.354Z,68.85
2022-12-14T05:34:41.164Z,68.96
2022-12-14T05:37:11.636Z,68.50
2022-12-14T05:39:41.287Z,68.62
2022-12-14T05:42:07.826Z,68.38
2022-12-14T05:44:34.429Z,68.70
2022-12-14T05:47:01.011Z,68.52
2022-12-14T05:49:31.883Z,67.76
2022-12-14T05:51:58.429Z,68.03
2022-12-14T05:54:27.307Z,67.36
2022-12-14T05:56:53.850Z,67.40
2022-12-14T05:59:20.397Z,67.00
2022-12-14T06:01:50.327Z,67.08
2022-12-14T06:04:18.691Z,66.86
2022-12-14T06:06:45.729Z,66.63
2022-12-14T06:09:17.814Z,66.35
2022-12-14T06:11:45.878Z,66.30
2022-12-14T06:14:13.280Z,65.55
2022-12-14T06:16:41.700Z,65.71
2022-12-14T06:19:08.592Z,65.27
2022-12-14T06:21:37.535Z,64.43
2022-12-14T06:24:05.166Z,64.72
2022-12-14T06:26:33.632Z,64.76
2022-12-14T06:29:00.208Z,64.76
2022-12-14T06:31:29.971Z,64.46
2022-12-14T06:34:02.594Z,64.31
2022-12-14T06:36:34.295Z,64.21
2022-12-14T06:39:04.715Z,63.90
2022-12-14T06:41:31.833Z,63.44
2022-12-14T06:44:05.618Z,63.10
2022-12-14T06:46:32.651Z,62.38
2022-12-14T06:48:59.240Z,62.39
2022-12-14T06:51:26.886Z,62.13
2022-12-14T06:53:57.101Z,62.14
2022-12-14T06:56:26.006Z,61.53
2022-12-14T06:58:54.725Z,61.70
2022-12-14T07:01:24.106Z,61.89
2022-12-14T07:03:57.921Z,61.14
2022-12-14T07:06:26.625Z,61.39
2022-12-14T07:08:58.052Z,60.87
2022-12-14T07:11:25.939Z,60.79
2022-12-14T07:13:53.665Z,60.93
2022-12-14T07:16:26.941Z,61.16
2022-12-14T07:18:56.889Z,61.14
2022-12-14T07:21:24.177Z,61.19
2022-12-14T07:23:52.965Z,61.18
2022-12-14T07:26:25.030Z,60.87
2022-12-14T07:28:52.591Z,60.97
2022-12-14T07:31:23.239Z,60.91
2022-12-14T07:33:53.363Z,60.83
2022-12-14T07:36:20.871Z,61.13
2022-12-14T07:38:49.954Z,60.54
2022-12-14T07:41:34.750Z,60.67
2022-12-14T07:44:02.015Z,60.72
2022-12-14T07:46:30.553Z,60.96
2022-12-14T07:48:58.266Z,60.39
2022-12-14T07:51:28.672Z,60.45
2022-12-14T07:53:55.794Z,60.10
2022-12-14T07:56:25.181Z,60.11
2022-12-14T07:58:54.228Z,60.24
2022-12-14T08:01:24.123Z,60.89
2022-12-14T08:03:56.198Z,61.63
2022-12-14T08:06:28.012Z,61.02
2022-12-14T08:08:55.771Z,61.79
2022-12-14T08:11:24.036Z,62.28
2022-12-14T08:14:01.734Z,62.89
2022-12-14T08:16:29.160Z,63.33
2022-12-14T08:18:57.832Z,63.71
2022-12-14T08:21:25.999Z,64.86
2022-12-14T08:23:55.053Z,66.26
2022-12-14T08:26:22.426Z,67.03
2022-12-14T08:28:49.006Z,69.39
2022-12-14T08:31:20.868Z,70.65
2022-12-14T08:33:48.629Z,71.07
2022-12-14T08:36:18.202Z,72.23
2022-12-14T08:38:44.913Z,72.95
2022-12-14T08:41:13.521Z,73.70
2022-12-14T08:43:40.864Z,74.88
2022-12-14T08:46:10.313Z,75.02
2022-12-14T08:48:37.914Z,76.11
2022-12-14T08:51:08.775Z,76.66
2022-12-14T08:53:37.232Z,77.38
2022-12-14T08:56:05.952Z,77.96
2022-12-14T08:58:33.818Z,78.19
2022-12-14T09:01:07.625Z,78.79
2022-12-14T09:03:34.928Z,79.04
2022-12-14T09:06:06.270Z,79.62
2022-12-14T09:08:34.161Z,80.18
2022-12-14T09:11:01.645Z,80.67
2022-12-14T09:13:29.371Z,80.58
2022-12-14T09:16:06.309Z,81.03
2022-12-14T09:18:34.532Z,81.63
2022-12-14T09:21:01.213Z,81.73
2022-12-14T09:23:30.875Z,82.02
2022-12-14T09:26:06.039Z,82.81
2022-12-14T09:28:36.038Z,82.85
2022-12-14T09:31:08.590Z,83.55
2022-12-14T09:33:37.262Z,83.80
2022-12-14T09:36:25.797Z,83.63
2022-12-14T09:38:56.145Z,83.80
2022-12-14T09:41:34.975Z,84.07
2022-12-14T09:44:18.762Z,84.04
2022-12-14T09:46:45.952Z,83.74
2022-12-14T09:49:29.622Z,83.62
2022-12-14T09:52:26.885Z,83.44
2022-12-14T09:54:53.966Z,82.71
2022-12-14T09:57:41.605Z,82.19
2022-12-14T10:00:21.204Z,82.11
2022-12-14T10:03:24.093Z,81.90
2022-12-14T10:06:22.966Z,81.73
2022-12-14T10:09:08.442Z,81.63
2022-12-14T10:11:59.229Z,81.30
2022-12-14T10:14:44.578Z,80.90
2022-12-14T10:17:26.398Z,80.82
2022-12-14T10:19:57.194Z,81.05
2022-12-14T10:22:43.286Z,80.74
2022-12-14T10:25:15.598Z,80.50
2022-12-14T10:28:10.270Z,81.00
2022-12-14T10:30:37.202Z,80.39
2022-12-14T10:33:30.416Z,80.51
2022-12-14T10:36:17.682Z,80.71
2022-12-14T10:39:19.055Z,80.51
2022-12-14T10:41:51.350Z,80.94
2022-12-14T10:44:39.740Z,81.00
2022-12-14T10:47:29.847Z,80.86
2022-12-14T10:50:07.345Z,80.52
2022-12-14T10:52:41.640Z,80.40
2022-12-14T10:55:17.485Z,79.72
2022-12-14T10:57:44.290Z,79.91
2022-12-14T11:00:23.216Z,79.44
2022-12-14T11:02:56.082Z,79.78
2022-12-14T11:05:36.999Z,79.41
2022-12-14T11:08:07.451Z,79.27
2022-12-14T11:10:40.986Z,79.19
2022-12-14T11:13:15.576Z,80.11
2022-12-14T11:15:47.776Z,80.46
2022-12-14T11:18:18.364Z,80.75
2022-12-14T11:21:05.735Z,80.71
2022-12-14T11:23:46.135Z,80.32
2022-12-14T11:26:20.890Z,80.66
2022-12-14T11:28:51.286Z,80.87
2022-12-14T11:31:22.449Z,80.89
2022-12-14T11:33:51.598Z,80.75
2022-12-14T11:36:27.666Z,80.67
2022-12-14T11:38:58.754Z,80.71
2022-12-14T11:41:33.467Z,81.11
2022-12-14T11:44:16.600Z,80.52
2022-12-14T11:46:52.063Z,81.22
2022-12-14T11:49:27.597Z,80.97
2022-12-14T11:52:10.556Z,80.82
2022-12-14T11:54:49.564Z,81.49
2022-12-14T11:57:28.266Z,81.47
2022-12-14T12:00:24.019Z,81.40
2022-12-14T12:03:03.404Z,81.88
2022-12-14T12:05:39.380Z,82.03
2022-12-14T12:08:28.812Z,81.82
2022-12-14T12:11:02.681Z,82.01
2022-12-14T12:13:39.526Z,82.54
2022-12-14T12:16:06.400Z,83.10
2022-12-14T12:18:46.618Z,82.72
2022-12-14T12:21:24.791Z,82.82
2022-12-14T12:24:23.799Z,82.15
2022-12-14T12:26:56.549Z,81.98
2022-12-14T12:29:37.061Z,82.70
2022-12-14T12:32:34.702Z,82.42
2022-12-14T12:35:19.029Z,82.45
2022-12-14T12:37:48.813Z,82.68
2022-12-14T12:40:39.228Z,82.20
2022-12-14T12:43:20.158Z,83.01
2022-12-14T12:45:52.552Z,83.13
2022-12-14T12:48:41.172Z,82.97
2022-12-14T12:51:33.368Z,82.92
2022-12-14T12:54:06.297Z,82.36
2022-12-14T12:56:48.141Z,82.54
2022-12-14T12:59:31.280Z,82.24
2022-12-14T13:02:03.364Z,82.54
2022-12-14T13:04:38.063Z,82.41
2022-12-14T13:07:32.492Z,82.18
2022-12-14T13:10:22.737Z,82.41
2022-12-14T13:12:54.291Z,82.80
2022-12-14T13:15:32.805Z,82.77
2022-12-14T13:18:56.520Z,82.72
2022-12-14T13:21:27.342Z,83.47
2022-12-14T13:23:54.013Z,83.57
2022-12-14T13:27:02.983Z,84.58
2022-12-14T13:29:39.292Z,84.05
2022-12-14T13:32:17.766Z,84.86
2022-12-14T13:35:19.519Z,84.70
2022-12-14T13:38:07.528Z,85.53
2022-12-14T13:41:12.841Z,85.33
2022-12-14T13:44:00.848Z,85.42
2022-12-14T13:46:30.232Z,86.00
2022-12-14T13:49:05.431Z,85.98
2022-12-14T13:51:39.463Z,85.13
2022-12-14T13:54:18.362Z,84.77
2022-12-14T13:56:47.467Z,84.33
2022-12-14T13:59:38.067Z,84.98
2022-12-14T14:02:06.116Z,84.53
2022-12-14T14:04:35.715Z,84.18
2022-12-14T14:07:24.055Z,83.84
2022-12-14T14:10:00.878Z,84.26
2022-12-14T14:12:35.201Z,84.47
2022-12-14T14:15:03.817Z,83.92
2022-12-14T14:17:42.904Z,83.64
2022-12-14T14:20:47.115Z,83.37
2022-12-14T14:23:14.181Z,83.45
2022-12-14T14:25:51.379Z,83.44
2022-12-14T14:28:23.177Z,83.76
2022-12-14T14:30:53.153Z,84.03
2022-12-14T14:33:52.888Z,84.17
2022-12-14T14:36:33.820Z,84.66
2022-12-14T14:39:03.224Z,84.91
2022-12-14T14:41:42.971Z,85.31
2022-12-14T14:44:38.830Z,85.49
2022-12-14T14:47:15.865Z,85.81
2022-12-14T14:49:44.815Z,85.98
2022-12-14T14:52:40.892Z,86.15
2022-12-14T14:55:51.911Z,86.88
2022-12-14T14:58:22.775Z,86.70
2022-12-14T15:00:59.653Z,87.25
2022-12-14T15:03:38.895Z,87.05
2022-12-14T15:06:31.673Z,87.10
2022-12-14T15:08:58.289Z,87.60
2022-12-14T15:11:28.028Z,87.92
2022-12-14T15:14:00.284Z,87.30
2022-12-14T15:16:42.695Z,87.95
2022-12-14T15:19:33.768Z,87.45
2022-12-14T15:22:05.388Z,88.13
2022-12-14T15:24:44.781Z,88.21
2022-12-14T15:27:26.343Z,88.14
2022-12-14T15:29:56.702Z,88.35
2022-12-14T15:32:27.226Z,88.35
2022-12-14T15:34:59.473Z,88.01
2022-12-14T15:37:45.755Z,88.17
2022-12-14T15:40:24.142Z,88.40
2022-12-14T15:42:56.087Z,88.06
2022-12-14T15:45:32.077Z,88.11
2022-12-14T15:48:25.971Z,88.41
2022-12-14T15:50:56.005Z,88.22
2022-12-14T15:53:42.669Z,87.97
2022-12-14T15:56:32.994Z,87.94
2022-12-14T15:59:02.181Z,88.52
2022-12-14T16:01:44.894Z,87.56
2022-12-14T16:04:18.818Z,87.90
2022-12-14T16:06:56.983Z,88.10
2022-12-14T16:09:34.788Z,87.70
2022-12-14T16:12:15.237Z,87.88
2022-12-14T16:14:45.499Z,88.87
2022-12-14T16:17:14.573Z,88.27
2022-12-14T16:19:58.690Z,88.86
2022-12-14T16:22:29.835Z,88.39
2022-12-14T16:25:08.535Z,88.53
2022-12-14T16:27:41.266Z,88.95
2022-12-14T16:30:26.862Z,89.26
2022-12-14T16:33:17.979Z,88.75
2022-12-14T16:35:46.845Z,88.88
2022-12-14T16:38:18.131Z,88.62
2022-12-14T16:40:44.740Z,89.44
2022-12-14T16:43:37.005Z,88.77
2022-12-14T16:46:03.799Z,88.63
2022-12-14T16:48:36.826Z,89.19
2022-12-14T16:51:37.937Z,88.53
2022-12-14T16:54:22.976Z,88.66
2022-12-14T16:56:55.836Z,88.55
2022-12-14T16:59:27.331Z,89.05
2022-12-14T17:01:54.365Z,88.38
2022-12-14T17:04:22.626Z,89.24
2022-12-14T17:06:51.189Z,88.72
2022-12-14T17:09:23.656Z,88.71
2022-12-14T17:11:53.006Z,87.89
2022-12-14T17:14:19.689Z,88.20
2022-12-14T17:16:48.409Z,88.50
2022-12-14T17:19:40.074Z,88.60
2022-12-14T17:22:34.551Z,87.81
2022-12-14T17:25:02.662Z,87.69
2022-12-14T17:27:29.959Z,87.13
2022-12-14T17:29:57.504Z,87.34
2022-12-14T17:32:29.916Z,87.51
2022-12-14T17:34:57.877Z,87.05
2022-12-14T17:37:26.824Z,86.38
2022-12-14T17:39:55.301Z,86.89
2022-12-14T17:42:22.613Z,86.49
2022-12-14T17:44:54.226Z,86.70
2022-12-14T17:47:26.437Z,86.88
2022-12-14T17:49:55.790Z,85.80
2022-12-14T17:52:30.464Z,85.86
2022-12-14T17:54:57.919Z,85.30
2022-12-14T17:57:26.418Z,85.02
2022-12-14T18:00:11.747Z,85.63
2022-12-14T18:02:40.003Z,84.91
2022-12-14T18:05:13.845Z,85.32
2022-12-14T18:07:40.391Z,84.71
2022-12-14T18:10:07.465Z,84.36
2022-12-14T18:12:34.904Z,83.49
2022-12-14T18:15:01.522Z,82.39
2022-12-14T18:17:58.677Z,82.43
2022-12-14T18:20:25.960Z,81.61
2022-12-14T18:22:53.995Z,78.42
2022-12-14T18:25:33.416Z,78.05
2022-12-14T18:28:02.077Z,78.35
2022-12-14T18:30:34.932Z,78.82
2022-12-14T18:33:06.286Z,78.19
2022-12-14T18:35:34.361Z,78.92
2022-12-14T18:38:09.306Z,79.18
2022-12-14T18:40:36.804Z,78.41
2022-12-14T18:43:04.014Z,77.81
2022-12-14T18:45:35.475Z,77.27
2022-12-14T18:48:02.244Z,76.73
2022-12-14T18:50:31.401Z,76.32
2022-12-14T18:53:01.242Z,76.72
2022-12-14T18:55:33.212Z,76.49
2022-12-14T18:58:03.969Z,77.39
2022-12-14T19:00:33.880Z,76.98
2022-12-14T19:03:02.572Z,76.41
2022-12-14T19:05:30.861Z,76.64
2022-12-14T19:07:59.215Z,76.59
2022-12-14T19:10:28.958Z,75.54
2022-12-14T19:12:56.175Z,76.02
2022-12-14T19:15:26.508Z,76.14
2022-12-14T19:17:53.394Z,75.85
2022-12-14T19:20:21.017Z,75.84
2022-12-14T19:22:48.300Z,75.42
2022-12-14T19:25:16.338Z,75.39
2022-12-14T19:28:20.335Z,74.56
2022-12-14T19:30:34.637Z,75.35
2022-12-14T19:33:03.734Z,74.54
2022-12-14T19:38:20.101Z,75.76
2022-12-14T19:41:21.511Z,75.25
2022-12-14T19:43:50.178Z,75.83
2022-12-14T19:46:18.258Z,74.76
2022-12-14T19:48:45.222Z,75.15
2022-12-14T19:51:13.645Z,74.51
2022-12-14T19:53:45.315Z,73.76
2022-12-14T19:56:15.422Z,73.74
2022-12-14T19:58:41.993Z,74.49
2022-12-14T20:01:14.678Z,74.56
2022-12-14T20:03:41.773Z,73.60
2022-12-14T20:06:09.549Z,73.73
2022-12-14T20:08:36.491Z,73.03
2022-12-14T20:11:08.088Z,74.18
2022-12-14T20:13:35.007Z,73.85
2022-12-14T20:16:02.311Z,74.14
2022-12-14T20:18:30.941Z,73.76
2022-12-14T20:21:08.919Z,74.37
2022-12-14T20:23:37.991Z,74.66
2022-12-14T20:26:07.565Z,74.86
2022-12-14T20:28:34.465Z,74.79
2022-12-14T20:31:05.457Z,74.84
2022-12-14T20:33:32.750Z,74.50
2022-12-14T20:35:59.899Z,74.93
2022-12-14T20:38:31.466Z,75.17
2022-12-14T20:41:05.183Z,74.81
2022-12-14T20:43:41.115Z,75.32
2022-12-14T20:46:33.178Z,75.47
2022-12-14T20:49:02.544Z,75.52
2022-12-14T20:51:37.970Z,75.57
2022-12-14T20:54:11.227Z,74.75
2022-12-14T20:56:38.187Z,74.97
2022-12-14T20:59:07.302Z,74.84
2022-12-14T21:01:37.228Z,75.42
2022-12-14T21:04:05.019Z,75.83
2022-12-14T21:06:33.471Z,75.35
2022-12-14T21:09:11.758Z,75.50
2022-12-14T21:12:06.111Z,75.76
2022-12-14T21:14:39.379Z,75.51
2022-12-14T21:17:06.386Z,76.02
2022-12-14T21:19:35.436Z,74.97
2022-12-14T21:22:06.987Z,75.21
2022-12-14T21:27:26.269Z,75.92
2022-12-14T21:29:53.371Z,74.94
2022-12-14T21:32:20.955Z,75.10
2022-12-14T21:34:48.279Z,75.17
2022-12-14T21:37:15.744Z,74.69
2022-12-14T21:39:43.670Z,74.87
2022-12-14T21:42:16.286Z,74.26
2022-12-14T21:44:45.457Z,74.06
2022-12-14T21:47:18.291Z,73.91
2022-12-14T21:49:47.193Z,74.10
2022-12-14T21:52:16.998Z,74.49
2022-12-14T21:54:44.318Z,74.18
2022-12-14T21:57:34.643Z,74.64
2022-12-14T22:00:02.340Z,75.23
2022-12-14T22:02:29.481Z,74.54
2022-12-14T22:04:56.418Z,74.83
2022-12-14T22:07:25.650Z,75.29
2022-12-14T22:09:52.280Z,75.50
2022-12-14T22:12:19.075Z,75.35
2022-12-14T22:14:46.374Z,76.11
2022-12-14T22:17:14.664Z,75.75
2022-12-14T22:19:41.317Z,75.67
2022-12-14T22:22:13.880Z,75.15
2022-12-14T22:24:40.905Z,75.11
2022-12-14T22:27:07.598Z,75.09
2022-12-14T22:29:34.245Z,74.70
2022-12-14T22:32:00.871Z,74.91
2022-12-14T22:34:27.585Z,74.70
2022-12-14T22:36:54.216Z,74.44
2022-12-14T22:39:20.758Z,75.32
2022-12-14T22:41:49.023Z,75.53
2022-12-14T22:44:17.177Z,75.66
2022-12-14T22:46:43.856Z,75.92
2022-12-14T22:49:15.521Z,76.37
2022-12-14T22:51:42.400Z,77.18
2022-12-14T22:54:11.396Z,77.01
2022-12-14T22:56:45.735Z,76.92
2022-12-14T22:59:22.402Z,76.68
2022-12-14T23:01:49.947Z,77.10
2022-12-14T23:04:17.173Z,77.64
2022-12-14T23:06:43.851Z,77.29
2022-12-14T23:09:28.957Z,77.15
2022-12-14T23:12:18.263Z,77.85
2022-12-14T23:15:07.985Z,77.40
2022-12-14T23:17:53.708Z,77.88
2022-12-14T23:20:39.196Z,77.57
2022-12-14T23:23:26.614Z,78.12
2022-12-14T23:26:12.129Z,78.63
2022-12-14T23:28:57.277Z,78.80
2022-12-14T23:31:42.187Z,79.37
2022-12-14T23:34:27.398Z,79.19
2022-12-14T23:37:17.989Z,78.92
2022-12-14T23:40:04.979Z,79.29
2022-12-14T23:42:50.006Z,79.55
2022-12-14T23:45:35.321Z,80.15
2022-12-14T23:48:20.322Z,79.66
2022-12-14T23:51:06.799Z,80.42
2022-12-14T23:53:52.618Z,80.40
2022-12-14T23:56:37.914Z,80.58
2022-12-14T23:59:28.024Z,80.58
